x

Long Key, Fl (lonf1) Weather Station

11:00am - Tue 21st Feb 2017 All times are CST. -5 hours from GMT.

  • Wind
    5mph, 7mph gusts
  • Sea Temp 76°f
  • Air Temp 75°f
  • Sea Pressure 1019mb
  • Long Key, Fl
  • Long Key, Fl

More Historic Weather Station data

Upgrade to MSW Pro to gain access to the past 30 days of data for over 8000 Wavebouys and Weather Stations around the globe.

Join Pro

Comparision Forecast

View Surf forecast
   
Tue 02/21 11:00am 5 7 mph 1019mb 76f 75f
10:00am 9 10 mph 1019.3mb 76f 73f
9:00am 10 13 mph 1019.2mb 76f 73f
8:00am 10 11 mph 1018.9mb 76f 73f
7:00am 14 16 mph 1018.2mb 76f 72f
6:00am 15 17 mph 1017.7mb 76f 73f
5:00am 13 15 mph 1017.3mb 76f 74f
4:00am 11 13 mph 1017.3mb 76f 74f
3:00am 13 14 mph 1017.5mb 76f 74f
2:00am 11 14 mph 1017.8mb 77f 74f
1:00am 11 14 mph 1017.9mb 77f 74f
12:00am 13 14 mph 1018.4mb 77f 74f
Mon 02/20 11:00pm 13 15 mph 1019.2mb 77f 75f
10:00pm 10 11 mph 1019.4mb 77f 75f
9:00pm 14 16 mph 1019.1mb 77f 75f
8:00pm 13 14 mph 1019.2mb 78f 75f
7:00pm 14 15 mph 1019mb 78f 75f
6:00pm 8 11 mph 1019mb 78f 75f
5:00pm 13 15 mph 1018.3mb 78f 76f
4:00pm 15 17 mph 1018.1mb 78f 75f
3:00pm 13 15 mph 1018.4mb 78f 76f
2:00pm 14 17 mph 1018.6mb 78f 76f
1:00pm 13 15 mph 1019.4mb 78f 76f
12:00pm 14 16 mph 1020.1mb 77f 76f
11:00am 11 13 mph 1020.5mb 77f 76f
10:00am 15 18 mph 1020.3mb 76f 76f
9:00am 14 16 mph 1019.8mb 76f 76f
8:00am 10 15 mph 1019mb 76f 75f
7:00am 16 18 mph 1018.5mb 77f 75f
6:00am 13 14 mph 1018.2mb 77f 74f
5:00am 11 14 mph 1017.8mb 77f 74f
4:00am 10 11 mph 1017.4mb 77f 74f
3:00am 10 11 mph 1017.5mb 77f 75f
2:00am 10 11 mph 1017.9mb 77f 75f
1:00am 14 15 mph 1018.4mb 77f 75f
12:00am 15 17 mph 1018.6mb 77f 75f
Sun 02/19 11:00pm 14 15 mph 1018.5mb 78f 77f
10:00pm 13 14 mph 1018.5mb 78f 76f
9:00pm 15 16 mph 1018.2mb 78f 75f
8:00pm 15 17 mph 1017.6mb 78f 76f
7:00pm 17 18 mph 1017.3mb 78f 76f
6:00pm 14 15 mph 1017.1mb 78f 76f
5:00pm 14 15 mph 1016.9mb 78f 77f
4:00pm 11 14 mph 1017.1mb 78f 77f
3:00pm 10 11 mph 1017mb 78f 77f
2:00pm 10 11 mph 1017.3mb 77f 76f
1:00pm 5 7 mph 1017.9mb 77f 76f
12:00pm 6
mph
1018.4mb 76f 77f
11:00am 5 6 mph 1018.8mb 76f 77f
10:00am 5 6 mph 1018.9mb 76f 78f
9:00am 6
mph
1018.4mb 75f 77f
8:00am 5 6 mph 1017.9mb 75f 76f
7:00am 6
mph
1017.3mb 75f 76f
6:00am 9
mph
1016.6mb 75f 76f
5:00am 7 8 mph 1016.4mb 75f 76f
4:00am 7 8 mph 1016.4mb 75f 76f
3:00am 9
mph
1016.4mb 75f 76f
2:00am 10 11 mph 1016.7mb 76f 76f
1:00am 11 14 mph 1016.8mb 76f 76f
12:00am 9 10 mph 1017.3mb 76f 76f
Sat 02/18 11:00pm 8 9 mph 1017.6mb 76f 76f
10:00pm 6 8 mph 1017.9mb 76f 76f
9:00pm 6
mph
1017.2mb 76f 76f
8:00pm 8
mph
1017.1mb 76f 75f
7:00pm 8 9 mph 1016.6mb 76f 76f
6:00pm 9 10 mph 1016.5mb 76f 76f
5:00pm 7 8 mph 1015.9mb 76f 78f
4:00pm 8 11 mph 1015.8mb 76f 77f
3:00pm 8 9 mph 1016.2mb 75f 76f
2:00pm 7
mph
1016.8mb 75f 77f
1:00pm 9 10 mph 1017.3mb 75f 76f
12:00pm 10 13 mph 1017.9mb 74f 76f
11:00am 8 9 mph 1018.4mb 74f 76f
10:00am 6 7 mph 1018.4mb 74f 74f
9:00am  -  1 mph 1017.8mb 73f 74f
8:00am  -  1 mph 1017.3mb 73f 73f
7:00am 2
mph
1017mb 73f 73f
6:00am  -  1 mph 1016.7mb 74f 72f
5:00am 2
mph
1016.3mb 74f 73f
4:00am 9
mph
1016.2mb 74f 73f
3:00am 8
mph
1016.3mb 74f 72f
2:00am 6 7 mph 1016.5mb 74f 71f
1:00am 1 2 mph 1016.8mb 74f 71f
12:00am 2 3 mph 1017.4mb 74f 71f
Fri 02/17 11:00pm  -  mph 1017.8mb 74f 70f
10:00pm 5
mph
1017.9mb 74f 70f
9:00pm 6 7 mph 1018.1mb 74f 71f
8:00pm 5 6 mph 1017.9mb 74f 70f
7:00pm 3 5 mph 1017.5mb 75f 70f
6:00pm 5
mph
1017.2mb 75f 70f